sensor_id;sensor_type;location;lat;lon;timestamp;P1;durP1;ratioP1;P2;durP2;ratioP2
7969;SDS011;4030;52.362;9.206;2023-01-19T00:00:15;6.23;;;4.67;;
7969;SDS011;4030;52.362;9.206;2023-01-19T00:02:42;5.27;;;4.10;;
7969;SDS011;4030;52.362;9.206;2023-01-19T00:05:09;5.87;;;4.73;;
7969;SDS011;4030;52.362;9.206;2023-01-19T00:07:35;7.57;;;4.40;;
7969;SDS011;4030;52.362;9.206;2023-01-19T00:10:01;5.63;;;4.53;;
7969;SDS011;4030;52.362;9.206;2023-01-19T00:12:27;5.73;;;5.13;;
7969;SDS011;4030;52.362;9.206;2023-01-19T00:14:53;5.73;;;4.80;;
7969;SDS011;4030;52.362;9.206;2023-01-19T00:17:19;6.10;;;4.47;;
7969;SDS011;4030;52.362;9.206;2023-01-19T00:19:45;7.63;;;4.60;;
7969;SDS011;4030;52.362;9.206;2023-01-19T00:22:11;4.87;;;4.10;;
7969;SDS011;4030;52.362;9.206;2023-01-19T00:24:37;4.33;;;3.90;;
7969;SDS011;4030;52.362;9.206;2023-01-19T00:27:03;6.23;;;4.50;;
7969;SDS011;4030;52.362;9.206;2023-01-19T00:29:30;5.90;;;4.23;;
7969;SDS011;4030;52.362;9.206;2023-01-19T00:31:58;5.93;;;4.30;;
7969;SDS011;4030;52.362;9.206;2023-01-19T00:34:25;5.00;;;4.47;;
7969;SDS011;4030;52.362;9.206;2023-01-19T00:36:51;5.27;;;4.13;;
7969;SDS011;4030;52.362;9.206;2023-01-19T00:39:16;7.03;;;4.00;;
7969;SDS011;4030;52.362;9.206;2023-01-19T00:41:42;4.67;;;4.07;;
7969;SDS011;4030;52.362;9.206;2023-01-19T00:44:27;6.33;;;4.50;;
7969;SDS011;4030;52.362;9.206;2023-01-19T00:46:53;6.23;;;4.67;;
7969;SDS011;4030;52.362;9.206;2023-01-19T00:49:18;5.20;;;4.33;;
7969;SDS011;4030;52.362;9.206;2023-01-19T00:51:44;6.13;;;4.20;;
7969;SDS011;4030;52.362;9.206;2023-01-19T00:54:10;4.60;;;4.13;;
7969;SDS011;4030;52.362;9.206;2023-01-19T00:56:36;4.93;;;4.30;;
7969;SDS011;4030;52.362;9.206;2023-01-19T00:59:02;4.77;;;4.27;;
7969;SDS011;4030;52.362;9.206;2023-01-19T01:01:29;5.00;;;4.00;;
7969;SDS011;4030;52.362;9.206;2023-01-19T01:03:55;5.20;;;4.30;;
7969;SDS011;4030;52.362;9.206;2023-01-19T01:06:21;6.30;;;3.97;;
7969;SDS011;4030;52.362;9.206;2023-01-19T01:08:46;6.17;;;4.57;;
7969;SDS011;4030;52.362;9.206;2023-01-19T01:11:12;5.07;;;4.07;;
7969;SDS011;4030;52.362;9.206;2023-01-19T01:13:39;5.00;;;4.50;;
7969;SDS011;4030;52.362;9.206;2023-01-19T01:16:05;4.60;;;4.10;;
7969;SDS011;4030;52.362;9.206;2023-01-19T01:18:33;6.23;;;4.23;;
7969;SDS011;4030;52.362;9.206;2023-01-19T01:21:03;5.43;;;4.43;;
7969;SDS011;4030;52.362;9.206;2023-01-19T01:23:30;4.37;;;3.97;;
7969;SDS011;4030;52.362;9.206;2023-01-19T01:25:57;4.90;;;3.90;;
7969;SDS011;4030;52.362;9.206;2023-01-19T01:28:23;4.87;;;4.10;;
7969;SDS011;4030;52.362;9.206;2023-01-19T01:30:53;5.20;;;4.20;;
7969;SDS011;4030;52.362;9.206;2023-01-19T01:33:20;5.80;;;4.23;;
7969;SDS011;4030;52.362;9.206;2023-01-19T01:35:47;4.80;;;3.83;;
7969;SDS011;4030;52.362;9.206;2023-01-19T01:38:14;5.37;;;4.30;;
7969;SDS011;4030;52.362;9.206;2023-01-19T01:40:41;4.67;;;4.10;;
7969;SDS011;4030;52.362;9.206;2023-01-19T01:43:13;6.13;;;4.27;;
7969;SDS011;4030;52.362;9.206;2023-01-19T01:45:42;4.97;;;4.00;;
7969;SDS011;4030;52.362;9.206;2023-01-19T01:50:42;5.37;;;3.90;;
7969;SDS011;4030;52.362;9.206;2023-01-19T01:53:34;4.80;;;4.07;;
7969;SDS011;4030;52.362;9.206;2023-01-19T01:56:03;6.80;;;4.30;;
7969;SDS011;4030;52.362;9.206;2023-01-19T01:58:34;5.03;;;4.03;;
7969;SDS011;4030;52.362;9.206;2023-01-19T02:01:02;5.13;;;4.10;;
7969;SDS011;4030;52.362;9.206;2023-01-19T02:03:46;5.00;;;4.13;;
7969;SDS011;4030;52.362;9.206;2023-01-19T02:06:12;5.60;;;4.10;;
7969;SDS011;4030;52.362;9.206;2023-01-19T02:11:30;4.80;;;4.23;;
7969;SDS011;4030;52.362;9.206;2023-01-19T02:14:16;5.43;;;4.03;;
7969;SDS011;4030;52.362;9.206;2023-01-19T02:16:42;4.77;;;3.90;;
7969;SDS011;4030;52.362;9.206;2023-01-19T02:19:11;4.80;;;4.00;;
7969;SDS011;4030;52.362;9.206;2023-01-19T02:21:53;4.93;;;3.90;;
7969;SDS011;4030;52.362;9.206;2023-01-19T02:24:25;5.17;;;4.30;;
7969;SDS011;4030;52.362;9.206;2023-01-19T02:26:52;4.33;;;3.93;;
7969;SDS011;4030;52.362;9.206;2023-01-19T02:29:19;4.83;;;4.37;;
7969;SDS011;4030;52.362;9.206;2023-01-19T02:31:47;5.03;;;3.80;;
7969;SDS011;4030;52.362;9.206;2023-01-19T02:34:14;4.67;;;4.17;;
7969;SDS011;4030;52.362;9.206;2023-01-19T02:36:47;4.97;;;4.37;;
7969;SDS011;4030;52.362;9.206;2023-01-19T02:39:22;4.87;;;4.03;;
7969;SDS011;4030;52.362;9.206;2023-01-19T02:41:55;4.60;;;3.80;;
7969;SDS011;4030;52.362;9.206;2023-01-19T02:44:27;4.97;;;4.20;;
7969;SDS011;4030;52.362;9.206;2023-01-19T02:46:54;4.43;;;3.87;;
7969;SDS011;4030;52.362;9.206;2023-01-19T02:49:20;5.50;;;4.00;;
7969;SDS011;4030;52.362;9.206;2023-01-19T02:51:47;5.23;;;4.33;;
7969;SDS011;4030;52.362;9.206;2023-01-19T03:00:20;5.00;;;4.17;;
7969;SDS011;4030;52.362;9.206;2023-01-19T03:03:31;5.27;;;4.50;;
7969;SDS011;4030;52.362;9.206;2023-01-19T03:06:21;5.03;;;4.50;;
7969;SDS011;4030;52.362;9.206;2023-01-19T03:09:20;5.07;;;4.50;;
7969;SDS011;4030;52.362;9.206;2023-01-19T03:12:12;5.20;;;4.20;;
7969;SDS011;4030;52.362;9.206;2023-01-19T03:14:51;5.13;;;4.50;;
7969;SDS011;4030;52.362;9.206;2023-01-19T03:17:23;4.90;;;4.40;;
7969;SDS011;4030;52.362;9.206;2023-01-19T03:19:50;5.40;;;4.80;;
7969;SDS011;4030;52.362;9.206;2023-01-19T03:22:19;5.77;;;4.17;;
7969;SDS011;4030;52.362;9.206;2023-01-19T03:24:51;5.60;;;4.50;;
7969;SDS011;4030;52.362;9.206;2023-01-19T03:27:22;4.83;;;4.20;;
7969;SDS011;4030;52.362;9.206;2023-01-19T03:29:56;5.10;;;4.60;;
7969;SDS011;4030;52.362;9.206;2023-01-19T03:32:27;5.20;;;4.13;;
7969;SDS011;4030;52.362;9.206;2023-01-19T03:34:59;4.77;;;3.97;;
7969;SDS011;4030;52.362;9.206;2023-01-19T03:37:31;6.00;;;4.40;;
7969;SDS011;4030;52.362;9.206;2023-01-19T03:40:03;5.47;;;4.93;;
7969;SDS011;4030;52.362;9.206;2023-01-19T03:42:30;5.07;;;4.57;;
7969;SDS011;4030;52.362;9.206;2023-01-19T03:44:56;5.33;;;4.67;;
7969;SDS011;4030;52.362;9.206;2023-01-19T03:47:25;5.23;;;4.43;;
7969;SDS011;4030;52.362;9.206;2023-01-19T03:49:51;6.83;;;4.70;;
7969;SDS011;4030;52.362;9.206;2023-01-19T03:52:25;5.47;;;4.67;;
7969;SDS011;4030;52.362;9.206;2023-01-19T03:54:53;5.27;;;4.77;;
7969;SDS011;4030;52.362;9.206;2023-01-19T03:57:19;4.73;;;4.30;;
7969;SDS011;4030;52.362;9.206;2023-01-19T03:59:46;6.90;;;4.77;;
7969;SDS011;4030;52.362;9.206;2023-01-19T04:02:12;5.70;;;4.50;;
7969;SDS011;4030;52.362;9.206;2023-01-19T04:04:38;5.47;;;4.37;;
7969;SDS011;4030;52.362;9.206;2023-01-19T04:07:04;5.93;;;4.80;;
7969;SDS011;4030;52.362;9.206;2023-01-19T04:09:30;5.63;;;4.27;;
7969;SDS011;4030;52.362;9.206;2023-01-19T04:11:56;4.90;;;4.40;;
7969;SDS011;4030;52.362;9.206;2023-01-19T04:14:22;6.03;;;4.40;;
7969;SDS011;4030;52.362;9.206;2023-01-19T04:16:48;6.20;;;4.63;;
7969;SDS011;4030;52.362;9.206;2023-01-19T04:19:14;5.27;;;4.40;;
7969;SDS011;4030;52.362;9.206;2023-01-19T04:21:40;6.27;;;4.80;;
7969;SDS011;4030;52.362;9.206;2023-01-19T04:24:06;4.80;;;4.30;;
7969;SDS011;4030;52.362;9.206;2023-01-19T04:26:33;4.53;;;3.83;;
7969;SDS011;4030;52.362;9.206;2023-01-19T04:28:59;6.67;;;4.40;;
7969;SDS011;4030;52.362;9.206;2023-01-19T04:31:25;4.57;;;4.17;;
7969;SDS011;4030;52.362;9.206;2023-01-19T04:33:51;4.87;;;4.37;;
7969;SDS011;4030;52.362;9.206;2023-01-19T04:36:16;5.47;;;3.97;;
7969;SDS011;4030;52.362;9.206;2023-01-19T04:38:42;6.40;;;4.37;;
7969;SDS011;4030;52.362;9.206;2023-01-19T04:41:10;4.67;;;4.23;;
7969;SDS011;4030;52.362;9.206;2023-01-19T04:43:36;6.37;;;4.30;;
7969;SDS011;4030;52.362;9.206;2023-01-19T04:46:02;4.93;;;4.33;;
7969;SDS011;4030;52.362;9.206;2023-01-19T04:48:28;5.43;;;4.37;;
7969;SDS011;4030;52.362;9.206;2023-01-19T04:50:54;6.07;;;4.30;;
7969;SDS011;4030;52.362;9.206;2023-01-19T04:53:20;4.80;;;4.30;;
7969;SDS011;4030;52.362;9.206;2023-01-19T04:55:46;4.97;;;4.27;;
7969;SDS011;4030;52.362;9.206;2023-01-19T04:58:18;6.10;;;4.50;;
7969;SDS011;4030;52.362;9.206;2023-01-19T05:00:44;4.80;;;4.33;;
7969;SDS011;4030;52.362;9.206;2023-01-19T05:03:10;4.60;;;4.10;;
7969;SDS011;4030;52.362;9.206;2023-01-19T05:05:36;5.37;;;4.30;;
7969;SDS011;4030;52.362;9.206;2023-01-19T05:08:01;4.97;;;4.07;;
7969;SDS011;4030;52.362;9.206;2023-01-19T05:10:27;5.87;;;4.27;;
7969;SDS011;4030;52.362;9.206;2023-01-19T05:12:53;5.30;;;4.27;;
7969;SDS011;4030;52.362;9.206;2023-01-19T05:15:19;5.80;;;4.30;;
7969;SDS011;4030;52.362;9.206;2023-01-19T05:17:45;4.80;;;4.00;;
7969;SDS011;4030;52.362;9.206;2023-01-19T05:20:12;4.93;;;4.33;;
7969;SDS011;4030;52.362;9.206;2023-01-19T05:22:38;5.03;;;4.10;;
7969;SDS011;4030;52.362;9.206;2023-01-19T05:25:04;5.40;;;4.47;;
7969;SDS011;4030;52.362;9.206;2023-01-19T05:27:35;5.53;;;4.13;;
7969;SDS011;4030;52.362;9.206;2023-01-19T05:30:01;5.53;;;4.40;;
7969;SDS011;4030;52.362;9.206;2023-01-19T05:32:28;6.13;;;4.30;;
7969;SDS011;4030;52.362;9.206;2023-01-19T05:34:54;5.00;;;4.30;;
7969;SDS011;4030;52.362;9.206;2023-01-19T05:37:20;6.03;;;4.20;;
7969;SDS011;4030;52.362;9.206;2023-01-19T05:39:46;7.07;;;4.30;;
7969;SDS011;4030;52.362;9.206;2023-01-19T05:42:12;6.13;;;4.47;;
7969;SDS011;4030;52.362;9.206;2023-01-19T05:44:38;5.10;;;4.27;;
7969;SDS011;4030;52.362;9.206;2023-01-19T05:47:04;4.60;;;4.10;;
7969;SDS011;4030;52.362;9.206;2023-01-19T05:49:30;6.60;;;4.20;;
7969;SDS011;4030;52.362;9.206;2023-01-19T05:51:56;4.47;;;4.07;;
7969;SDS011;4030;52.362;9.206;2023-01-19T05:54:22;5.27;;;4.50;;
7969;SDS011;4030;52.362;9.206;2023-01-19T05:56:48;6.30;;;4.37;;
7969;SDS011;4030;52.362;9.206;2023-01-19T05:59:14;5.10;;;4.00;;
7969;SDS011;4030;52.362;9.206;2023-01-19T06:01:47;4.97;;;4.20;;
7969;SDS011;4030;52.362;9.206;2023-01-19T06:04:15;6.67;;;4.17;;
7969;SDS011;4030;52.362;9.206;2023-01-19T06:06:40;4.73;;;3.90;;
7969;SDS011;4030;52.362;9.206;2023-01-19T06:09:06;4.87;;;4.20;;
7969;SDS011;4030;52.362;9.206;2023-01-19T06:11:32;4.57;;;3.77;;
7969;SDS011;4030;52.362;9.206;2023-01-19T06:13:58;4.27;;;3.77;;
7969;SDS011;4030;52.362;9.206;2023-01-19T06:16:25;4.87;;;3.73;;
7969;SDS011;4030;52.362;9.206;2023-01-19T06:18:51;5.27;;;3.90;;
7969;SDS011;4030;52.362;9.206;2023-01-19T06:21:17;5.87;;;3.70;;
7969;SDS011;4030;52.362;9.206;2023-01-19T06:23:43;5.13;;;3.90;;
7969;SDS011;4030;52.362;9.206;2023-01-19T06:26:09;6.00;;;3.87;;
7969;SDS011;4030;52.362;9.206;2023-01-19T06:28:35;5.40;;;3.90;;
7969;SDS011;4030;52.362;9.206;2023-01-19T06:31:01;4.80;;;3.67;;
7969;SDS011;4030;52.362;9.206;2023-01-19T06:33:27;5.33;;;3.80;;
7969;SDS011;4030;52.362;9.206;2023-01-19T06:35:54;4.97;;;3.47;;
7969;SDS011;4030;52.362;9.206;2023-01-19T06:38:20;4.10;;;3.40;;
7969;SDS011;4030;52.362;9.206;2023-01-19T06:40:50;4.23;;;3.83;;
7969;SDS011;4030;52.362;9.206;2023-01-19T06:43:19;4.43;;;3.57;;
7969;SDS011;4030;52.362;9.206;2023-01-19T06:45:45;4.33;;;3.30;;
7969;SDS011;4030;52.362;9.206;2023-01-19T06:48:11;6.53;;;4.03;;
7969;SDS011;4030;52.362;9.206;2023-01-19T06:50:38;5.07;;;3.60;;
7969;SDS011;4030;52.362;9.206;2023-01-19T06:53:04;4.90;;;3.80;;
7969;SDS011;4030;52.362;9.206;2023-01-19T06:55:30;4.03;;;3.57;;
7969;SDS011;4030;52.362;9.206;2023-01-19T06:57:59;4.40;;;3.17;;
7969;SDS011;4030;52.362;9.206;2023-01-19T07:00:25;3.87;;;3.40;;
7969;SDS011;4030;52.362;9.206;2023-01-19T07:02:51;4.53;;;3.77;;
7969;SDS011;4030;52.362;9.206;2023-01-19T07:05:17;4.47;;;3.50;;
7969;SDS011;4030;52.362;9.206;2023-01-19T07:07:42;4.63;;;3.53;;
7969;SDS011;4030;52.362;9.206;2023-01-19T07:10:09;4.17;;;3.67;;
7969;SDS011;4030;52.362;9.206;2023-01-19T07:12:37;4.33;;;3.27;;
7969;SDS011;4030;52.362;9.206;2023-01-19T07:15:03;5.07;;;3.40;;
7969;SDS011;4030;52.362;9.206;2023-01-19T07:17:30;4.00;;;3.50;;
7969;SDS011;4030;52.362;9.206;2023-01-19T07:19:55;5.23;;;3.57;;
7969;SDS011;4030;52.362;9.206;2023-01-19T07:22:21;4.00;;;3.60;;
7969;SDS011;4030;52.362;9.206;2023-01-19T07:24:47;5.07;;;3.40;;
7969;SDS011;4030;52.362;9.206;2023-01-19T07:27:13;4.67;;;4.03;;
7969;SDS011;4030;52.362;9.206;2023-01-19T07:29:40;4.57;;;3.30;;
7969;SDS011;4030;52.362;9.206;2023-01-19T07:32:06;4.27;;;3.50;;
7969;SDS011;4030;52.362;9.206;2023-01-19T07:34:32;3.77;;;2.90;;
7969;SDS011;4030;52.362;9.206;2023-01-19T07:36:58;4.43;;;3.30;;
7969;SDS011;4030;52.362;9.206;2023-01-19T07:39:24;3.97;;;3.40;;
7969;SDS011;4030;52.362;9.206;2023-01-19T07:41:49;4.87;;;3.33;;
7969;SDS011;4030;52.362;9.206;2023-01-19T07:44:15;4.60;;;3.23;;
7969;SDS011;4030;52.362;9.206;2023-01-19T07:46:41;3.00;;;2.70;;
7969;SDS011;4030;52.362;9.206;2023-01-19T07:49:07;4.73;;;3.43;;
7969;SDS011;4030;52.362;9.206;2023-01-19T07:51:33;3.30;;;3.00;;
7969;SDS011;4030;52.362;9.206;2023-01-19T07:54:00;4.53;;;3.40;;
7969;SDS011;4030;52.362;9.206;2023-01-19T07:56:25;5.43;;;3.47;;
7969;SDS011;4030;52.362;9.206;2023-01-19T07:58:54;4.47;;;3.30;;
7969;SDS011;4030;52.362;9.206;2023-01-19T08:01:20;4.07;;;3.10;;
7969;SDS011;4030;52.362;9.206;2023-01-19T08:03:46;4.03;;;3.30;;
7969;SDS011;4030;52.362;9.206;2023-01-19T08:06:20;3.37;;;3.00;;
7969;SDS011;4030;52.362;9.206;2023-01-19T08:08:48;4.57;;;3.37;;
7969;SDS011;4030;52.362;9.206;2023-01-19T08:11:15;3.47;;;3.17;;
7969;SDS011;4030;52.362;9.206;2023-01-19T08:13:41;3.63;;;2.87;;
7969;SDS011;4030;52.362;9.206;2023-01-19T08:16:07;3.33;;;3.03;;
7969;SDS011;4030;52.362;9.206;2023-01-19T08:18:33;3.30;;;2.60;;
7969;SDS011;4030;52.362;9.206;2023-01-19T08:20:59;3.30;;;2.77;;
7969;SDS011;4030;52.362;9.206;2023-01-19T08:23:24;3.70;;;2.70;;
7969;SDS011;4030;52.362;9.206;2023-01-19T08:25:52;3.00;;;2.70;;
7969;SDS011;4030;52.362;9.206;2023-01-19T08:28:18;2.70;;;2.50;;
7969;SDS011;4030;52.362;9.206;2023-01-19T08:30:44;3.07;;;2.77;;
7969;SDS011;4030;52.362;9.206;2023-01-19T08:33:17;3.57;;;2.60;;
7969;SDS011;4030;52.362;9.206;2023-01-19T08:35:45;3.17;;;2.70;;
7969;SDS011;4030;52.362;9.206;2023-01-19T08:38:13;3.13;;;2.37;;
7969;SDS011;4030;52.362;9.206;2023-01-19T08:40:40;3.17;;;2.60;;
7969;SDS011;4030;52.362;9.206;2023-01-19T08:43:08;2.70;;;2.30;;
7969;SDS011;4030;52.362;9.206;2023-01-19T08:45:37;3.33;;;2.27;;
7969;SDS011;4030;52.362;9.206;2023-01-19T08:48:06;2.40;;;2.20;;
7969;SDS011;4030;52.362;9.206;2023-01-19T08:50:32;2.30;;;2.10;;
7969;SDS011;4030;52.362;9.206;2023-01-19T08:52:59;2.70;;;2.50;;
7969;SDS011;4030;52.362;9.206;2023-01-19T08:55:27;3.00;;;2.53;;
7969;SDS011;4030;52.362;9.206;2023-01-19T08:57:53;3.83;;;2.70;;
7969;SDS011;4030;52.362;9.206;2023-01-19T09:00:21;3.33;;;2.73;;
7969;SDS011;4030;52.362;9.206;2023-01-19T09:02:49;2.60;;;2.40;;
7969;SDS011;4030;52.362;9.206;2023-01-19T09:05:15;3.03;;;2.47;;
7969;SDS011;4030;52.362;9.206;2023-01-19T09:07:42;2.30;;;2.10;;
7969;SDS011;4030;52.362;9.206;2023-01-19T09:10:12;2.83;;;2.40;;
7969;SDS011;4030;52.362;9.206;2023-01-19T09:12:39;2.40;;;2.20;;
7969;SDS011;4030;52.362;9.206;2023-01-19T09:15:05;2.43;;;2.23;;
7969;SDS011;4030;52.362;9.206;2023-01-19T09:17:34;2.57;;;2.10;;
7969;SDS011;4030;52.362;9.206;2023-01-19T09:20:00;2.53;;;2.00;;
7969;SDS011;4030;52.362;9.206;2023-01-19T09:22:26;2.70;;;2.10;;
7969;SDS011;4030;52.362;9.206;2023-01-19T09:24:52;2.33;;;2.13;;
7969;SDS011;4030;52.362;9.206;2023-01-19T09:27:18;2.33;;;1.80;;
7969;SDS011;4030;52.362;9.206;2023-01-19T09:29:44;2.63;;;1.90;;
7969;SDS011;4030;52.362;9.206;2023-01-19T09:32:16;1.80;;;1.70;;
7969;SDS011;4030;52.362;9.206;2023-01-19T09:34:43;2.20;;;2.00;;
7969;SDS011;4030;52.362;9.206;2023-01-19T09:37:09;2.10;;;1.90;;
7969;SDS011;4030;52.362;9.206;2023-01-19T09:39:35;1.90;;;1.70;;
7969;SDS011;4030;52.362;9.206;2023-01-19T09:42:17;2.00;;;1.80;;
7969;SDS011;4030;52.362;9.206;2023-01-19T09:44:56;2.67;;;1.97;;
7969;SDS011;4030;52.362;9.206;2023-01-19T09:47:24;2.40;;;2.00;;
7969;SDS011;4030;52.362;9.206;2023-01-19T09:49:53;2.30;;;1.70;;
7969;SDS011;4030;52.362;9.206;2023-01-19T09:52:31;2.00;;;1.80;;
7969;SDS011;4030;52.362;9.206;2023-01-19T09:55:01;1.80;;;1.60;;
7969;SDS011;4030;52.362;9.206;2023-01-19T09:57:27;2.00;;;1.80;;
7969;SDS011;4030;52.362;9.206;2023-01-19T09:59:54;2.10;;;1.70;;
7969;SDS011;4030;52.362;9.206;2023-01-19T10:08:05;1.83;;;1.60;;
7969;SDS011;4030;52.362;9.206;2023-01-19T10:10:54;2.67;;;2.03;;
7969;SDS011;4030;52.362;9.206;2023-01-19T10:19:19;4.90;;;2.53;;
7969;SDS011;4030;52.362;9.206;2023-01-19T10:21:51;5.47;;;2.40;;
7969;SDS011;4030;52.362;9.206;2023-01-19T10:26:53;3.97;;;2.17;;
7969;SDS011;4030;52.362;9.206;2023-01-19T10:29:21;3.17;;;2.07;;
7969;SDS011;4030;52.362;9.206;2023-01-19T10:31:56;2.83;;;2.20;;
7969;SDS011;4030;52.362;9.206;2023-01-19T10:34:33;2.97;;;2.33;;
7969;SDS011;4030;52.362;9.206;2023-01-19T10:40:01;2.90;;;1.70;;
7969;SDS011;4030;52.362;9.206;2023-01-19T10:42:46;2.27;;;1.90;;
7969;SDS011;4030;52.362;9.206;2023-01-19T10:45:15;3.73;;;2.27;;
7969;SDS011;4030;52.362;9.206;2023-01-19T10:47:44;2.57;;;2.03;;
7969;SDS011;4030;52.362;9.206;2023-01-19T10:52:50;2.77;;;2.03;;
7969;SDS011;4030;52.362;9.206;2023-01-19T10:55:37;2.37;;;1.80;;
7969;SDS011;4030;52.362;9.206;2023-01-19T10:58:04;2.00;;;1.77;;
7969;SDS011;4030;52.362;9.206;2023-01-19T11:03:03;2.03;;;1.83;;
7969;SDS011;4030;52.362;9.206;2023-01-19T11:05:48;2.10;;;1.90;;
7969;SDS011;4030;52.362;9.206;2023-01-19T11:08:22;2.30;;;1.80;;
7969;SDS011;4030;52.362;9.206;2023-01-19T11:11:01;1.93;;;1.73;;
7969;SDS011;4030;52.362;9.206;2023-01-19T11:13:36;2.30;;;2.10;;
7969;SDS011;4030;52.362;9.206;2023-01-19T11:16:04;2.13;;;1.90;;
7969;SDS011;4030;52.362;9.206;2023-01-19T11:18:51;2.17;;;1.93;;
7969;SDS011;4030;52.362;9.206;2023-01-19T11:21:26;2.00;;;1.80;;
7969;SDS011;4030;52.362;9.206;2023-01-19T11:24:01;2.53;;;1.97;;
7969;SDS011;4030;52.362;9.206;2023-01-19T11:26:33;2.40;;;2.20;;
7969;SDS011;4030;52.362;9.206;2023-01-19T11:29:39;2.10;;;1.90;;
7969;SDS011;4030;52.362;9.206;2023-01-19T11:32:10;2.23;;;2.03;;
7969;SDS011;4030;52.362;9.206;2023-01-19T11:34:46;2.40;;;2.20;;
7969;SDS011;4030;52.362;9.206;2023-01-19T11:39:45;2.13;;;1.93;;
7969;SDS011;4030;52.362;9.206;2023-01-19T11:42:14;2.50;;;2.10;;
7969;SDS011;4030;52.362;9.206;2023-01-19T11:44:42;2.37;;;2.00;;
7969;SDS011;4030;52.362;9.206;2023-01-19T11:47:45;2.67;;;2.30;;
7969;SDS011;4030;52.362;9.206;2023-01-19T11:50:38;2.77;;;2.20;;
7969;SDS011;4030;52.362;9.206;2023-01-19T11:55:40;2.10;;;1.90;;
7969;SDS011;4030;52.362;9.206;2023-01-19T11:58:28;2.63;;;2.10;;
7969;SDS011;4030;52.362;9.206;2023-01-19T12:00:58;3.33;;;1.90;;
7969;SDS011;4030;52.362;9.206;2023-01-19T12:03:42;2.20;;;2.00;;
7969;SDS011;4030;52.362;9.206;2023-01-19T12:06:29;2.40;;;2.20;;
7969;SDS011;4030;52.362;9.206;2023-01-19T12:11:40;3.23;;;2.40;;
7969;SDS011;4030;52.362;9.206;2023-01-19T12:14:27;3.73;;;2.90;;
7969;SDS011;4030;52.362;9.206;2023-01-19T12:17:01;3.63;;;2.83;;
7969;SDS011;4030;52.362;9.206;2023-01-19T12:19:43;3.90;;;2.83;;
7969;SDS011;4030;52.362;9.206;2023-01-19T12:22:16;3.90;;;2.90;;
7969;SDS011;4030;52.362;9.206;2023-01-19T12:24:58;3.77;;;2.70;;
7969;SDS011;4030;52.362;9.206;2023-01-19T12:27:49;3.30;;;2.37;;
7969;SDS011;4030;52.362;9.206;2023-01-19T12:30:23;4.00;;;2.47;;
7969;SDS011;4030;52.362;9.206;2023-01-19T12:32:51;3.33;;;2.50;;
7969;SDS011;4030;52.362;9.206;2023-01-19T12:35:54;3.87;;;2.50;;
7969;SDS011;4030;52.362;9.206;2023-01-19T12:41:46;3.87;;;2.30;;
7969;SDS011;4030;52.362;9.206;2023-01-19T12:44:14;3.30;;;2.50;;
7969;SDS011;4030;52.362;9.206;2023-01-19T12:46:50;3.53;;;2.10;;
7969;SDS011;4030;52.362;9.206;2023-01-19T12:52:18;3.90;;;2.60;;
7969;SDS011;4030;52.362;9.206;2023-01-19T12:57:37;3.13;;;2.20;;
7969;SDS011;4030;52.362;9.206;2023-01-19T13:00:30;3.40;;;2.10;;
7969;SDS011;4030;52.362;9.206;2023-01-19T13:05:53;4.10;;;2.37;;
7969;SDS011;4030;52.362;9.206;2023-01-19T13:08:54;3.73;;;2.30;;
7969;SDS011;4030;52.362;9.206;2023-01-19T13:11:20;4.43;;;2.30;;
7969;SDS011;4030;52.362;9.206;2023-01-19T13:18:46;4.33;;;2.07;;
7969;SDS011;4030;52.362;9.206;2023-01-19T13:21:25;3.23;;;1.90;;
7969;SDS011;4030;52.362;9.206;2023-01-19T13:24:08;3.90;;;2.10;;
7969;SDS011;4030;52.362;9.206;2023-01-19T13:31:54;4.37;;;2.63;;
7969;SDS011;4030;52.362;9.206;2023-01-19T13:34:26;4.07;;;2.43;;
7969;SDS011;4030;52.362;9.206;2023-01-19T13:37:03;3.70;;;2.20;;
7969;SDS011;4030;52.362;9.206;2023-01-19T13:39:36;3.50;;;2.43;;
7969;SDS011;4030;52.362;9.206;2023-01-19T13:42:12;3.70;;;2.10;;
7969;SDS011;4030;52.362;9.206;2023-01-19T13:44:45;4.73;;;2.27;;
7969;SDS011;4030;52.362;9.206;2023-01-19T13:47:24;3.80;;;2.07;;
7969;SDS011;4030;52.362;9.206;2023-01-19T13:50:01;4.97;;;2.10;;
7969;SDS011;4030;52.362;9.206;2023-01-19T13:52:27;4.10;;;1.90;;
7969;SDS011;4030;52.362;9.206;2023-01-19T13:54:54;3.80;;;1.93;;
7969;SDS011;4030;52.362;9.206;2023-01-19T13:57:27;4.07;;;2.00;;
7969;SDS011;4030;52.362;9.206;2023-01-19T14:00:06;5.07;;;2.00;;
7969;SDS011;4030;52.362;9.206;2023-01-19T14:05:32;4.80;;;2.00;;
7969;SDS011;4030;52.362;9.206;2023-01-19T14:10:38;5.63;;;1.80;;
7969;SDS011;4030;52.362;9.206;2023-01-19T14:13:16;4.57;;;1.87;;
7969;SDS011;4030;52.362;9.206;2023-01-19T14:15:46;4.63;;;1.97;;
7969;SDS011;4030;52.362;9.206;2023-01-19T14:20:59;3.73;;;1.97;;
7969;SDS011;4030;52.362;9.206;2023-01-19T14:23:39;5.27;;;2.17;;
7969;SDS011;4030;52.362;9.206;2023-01-19T14:26:06;4.93;;;2.17;;
7969;SDS011;4030;52.362;9.206;2023-01-19T14:29:27;4.30;;;2.10;;
7969;SDS011;4030;52.362;9.206;2023-01-19T14:32:11;4.57;;;2.10;;
7969;SDS011;4030;52.362;9.206;2023-01-19T14:34:49;3.90;;;2.27;;
7969;SDS011;4030;52.362;9.206;2023-01-19T14:45:06;4.33;;;2.20;;
7969;SDS011;4030;52.362;9.206;2023-01-19T14:48:01;4.87;;;2.40;;
7969;SDS011;4030;52.362;9.206;2023-01-19T14:50:32;4.33;;;2.40;;
7969;SDS011;4030;52.362;9.206;2023-01-19T14:53:01;6.43;;;2.30;;
7969;SDS011;4030;52.362;9.206;2023-01-19T14:55:48;2.90;;;1.73;;
7969;SDS011;4030;52.362;9.206;2023-01-19T14:58:20;4.23;;;2.00;;
7969;SDS011;4030;52.362;9.206;2023-01-19T15:00:49;6.37;;;2.23;;
7969;SDS011;4030;52.362;9.206;2023-01-19T15:03:19;5.03;;;2.00;;
7969;SDS011;4030;52.362;9.206;2023-01-19T15:05:49;3.53;;;1.80;;
7969;SDS011;4030;52.362;9.206;2023-01-19T15:08:16;4.70;;;2.17;;
7969;SDS011;4030;52.362;9.206;2023-01-19T15:11:08;4.63;;;2.10;;
7969;SDS011;4030;52.362;9.206;2023-01-19T15:13:37;4.53;;;2.00;;
7969;SDS011;4030;52.362;9.206;2023-01-19T15:16:05;4.70;;;1.80;;
7969;SDS011;4030;52.362;9.206;2023-01-19T15:18:32;4.60;;;1.90;;
7969;SDS011;4030;52.362;9.206;2023-01-19T15:20:59;3.60;;;1.83;;
7969;SDS011;4030;52.362;9.206;2023-01-19T15:23:30;5.90;;;2.17;;
7969;SDS011;4030;52.362;9.206;2023-01-19T15:26:00;4.23;;;1.80;;
7969;SDS011;4030;52.362;9.206;2023-01-19T15:28:28;5.23;;;2.40;;
7969;SDS011;4030;52.362;9.206;2023-01-19T15:30:54;4.87;;;2.30;;
7969;SDS011;4030;52.362;9.206;2023-01-19T15:33:23;3.73;;;2.30;;
7969;SDS011;4030;52.362;9.206;2023-01-19T15:35:51;5.20;;;2.37;;
7969;SDS011;4030;52.362;9.206;2023-01-19T15:38:18;4.43;;;2.53;;
7969;SDS011;4030;52.362;9.206;2023-01-19T15:40:44;5.70;;;2.53;;
7969;SDS011;4030;52.362;9.206;2023-01-19T15:43:12;5.00;;;2.50;;
7969;SDS011;4030;52.362;9.206;2023-01-19T15:48:04;5.30;;;2.70;;
7969;SDS011;4030;52.362;9.206;2023-01-19T15:50:40;5.77;;;3.00;;
7969;SDS011;4030;52.362;9.206;2023-01-19T15:53:11;3.87;;;2.73;;
7969;SDS011;4030;52.362;9.206;2023-01-19T15:55:43;5.33;;;2.77;;
7969;SDS011;4030;52.362;9.206;2023-01-19T15:58:12;5.43;;;2.67;;
7969;SDS011;4030;52.362;9.206;2023-01-19T16:00:38;5.30;;;3.00;;
7969;SDS011;4030;52.362;9.206;2023-01-19T16:03:05;6.97;;;3.00;;
7969;SDS011;4030;52.362;9.206;2023-01-19T16:05:30;4.57;;;2.90;;
7969;SDS011;4030;52.362;9.206;2023-01-19T16:07:56;5.10;;;3.23;;
7969;SDS011;4030;52.362;9.206;2023-01-19T16:10:23;5.67;;;3.70;;
7969;SDS011;4030;52.362;9.206;2023-01-19T16:12:49;6.20;;;3.27;;
7969;SDS011;4030;52.362;9.206;2023-01-19T16:15:16;6.27;;;3.70;;
7969;SDS011;4030;52.362;9.206;2023-01-19T16:17:42;5.23;;;3.47;;
7969;SDS011;4030;52.362;9.206;2023-01-19T16:20:09;6.40;;;3.60;;
7969;SDS011;4030;52.362;9.206;2023-01-19T16:22:35;5.83;;;3.23;;
7969;SDS011;4030;52.362;9.206;2023-01-19T16:25:02;6.13;;;3.17;;
7969;SDS011;4030;52.362;9.206;2023-01-19T16:27:28;7.63;;;3.70;;
7969;SDS011;4030;52.362;9.206;2023-01-19T16:29:55;6.33;;;3.63;;
7969;SDS011;4030;52.362;9.206;2023-01-19T16:32:23;5.30;;;3.50;;
7969;SDS011;4030;52.362;9.206;2023-01-19T16:34:49;7.53;;;4.07;;
7969;SDS011;4030;52.362;9.206;2023-01-19T16:37:15;6.53;;;3.70;;
7969;SDS011;4030;52.362;9.206;2023-01-19T16:39:41;5.47;;;3.93;;
7969;SDS011;4030;52.362;9.206;2023-01-19T16:42:09;5.43;;;3.67;;
7969;SDS011;4030;52.362;9.206;2023-01-19T16:44:34;5.40;;;3.63;;
7969;SDS011;4030;52.362;9.206;2023-01-19T16:47:00;5.57;;;4.07;;
7969;SDS011;4030;52.362;9.206;2023-01-19T16:49:27;6.33;;;3.70;;
7969;SDS011;4030;52.362;9.206;2023-01-19T16:51:52;6.80;;;3.87;;
7969;SDS011;4030;52.362;9.206;2023-01-19T16:54:22;5.23;;;3.60;;